Time;durP1;ratioP1;P1;durP2;ratioP2;P2;SDS_P1;SDS_P2;PMS_P1;PMS_P2;Temp;Humidity;BMP_temperature;BMP_pressure;BME280_temperature;BME280_humidity;BME280_pressure;Samples;Min_cycle;Max_cycle;Signal;HPM_P1;HPM_P2
2021/06/25 00:00:48;;;;;;;;;0.00;0.00;;;;;18.07;46.59;101633.78;5122805;27;45336;-67
2021/06/25 00:03:13;;;;;;;;;0.00;0.00;;;;;18.08;46.76;101629.31;5104282;27;45448;-66
2021/06/25 00:05:39;;;;;;;;;0.00;0.00;;;;;18.07;46.72;101620.50;5109253;27;45309;-66
2021/06/25 00:08:05;;;;;;;;;0.00;0.00;;;;;18.06;46.66;101613.53;5101818;27;45500;-66
2021/06/25 00:10:30;;;;;;;;;0.00;0.00;;;;;18.03;46.82;101619.13;5083470;27;45312;-66
2021/06/25 00:12:56;;;;;;;;;0.00;0.00;;;;;18.02;46.82;101618.28;5102044;27;45392;-67
2021/06/25 00:15:21;;;;;;;;;0.00;0.00;;;;;18.02;47.51;101618.28;5097289;27;45188;-67
2021/06/25 00:17:47;;;;;;;;;0.00;0.00;;;;;18.02;47.29;101620.09;5103809;27;46887;-67
2021/06/25 00:20:14;;;;;;;;;0.00;0.00;;;;;18.01;47.43;101611.31;5122783;27;45224;-67
2021/06/25 00:22:41;;;;;;;;;0.00;0.00;;;;;18.00;47.58;101614.94;5121220;27;45581;-67
2021/06/25 00:25:07;;;;;;;;;0.00;0.00;;;;;17.97;47.34;101609.91;5122940;27;45420;-68
2021/06/25 00:27:33;;;;;;;;;0.00;0.00;;;;;17.95;48.01;101609.22;5122500;27;45528;-66
2021/06/25 00:29:58;;;;;;;;;0.00;0.00;;;;;17.94;47.79;101606.72;5104044;27;45331;-66
2021/06/25 00:32:24;;;;;;;;;0.00;0.00;;;;;17.94;47.50;101610.19;5122654;27;45367;-66
2021/06/25 00:34:49;;;;;;;;;0.00;0.00;;;;;17.91;47.66;101599.88;5123026;27;45464;-66
2021/06/25 00:37:15;;;;;;;;;0.00;0.00;;;;;17.92;47.66;101608.66;5122001;27;46387;-67
2021/06/25 00:39:40;;;;;;;;;0.00;0.00;;;;;17.92;47.92;101611.31;5122662;27;45441;-66
2021/06/25 00:42:08;;;;;;;;;0.00;0.00;;;;;17.88;47.84;101602.81;5122353;27;45320;-66
2021/06/25 00:44:38;;;;;;;;;0.00;0.00;;;;;17.88;48.31;101601.97;5122604;27;45587;-66
2021/06/25 00:47:04;;;;;;;;;0.00;0.00;;;;;17.84;48.53;101593.47;5122251;27;45428;-66
2021/06/25 00:49:29;;;;;;;;;0.00;0.00;;;;;17.83;48.33;101594.44;5122387;27;45309;-66
2021/06/25 00:51:54;;;;;;;;;0.00;0.00;;;;;17.80;48.52;101589.41;5122252;27;45333;-67
2021/06/25 00:54:19;;;;;;;;;0.00;0.00;;;;;17.80;48.62;101592.06;5122395;27;45435;-66
2021/06/25 00:56:45;;;;;;;;;0.00;0.00;;;;;17.78;48.75;101586.03;5121702;27;45428;-67
2021/06/25 00:59:10;;;;;;;;;0.00;0.00;;;;;17.76;48.61;101582.69;5103665;27;45385;-66
2021/06/25 01:01:36;;;;;;;;;0.00;0.00;;;;;17.73;49.44;101581.16;5122146;27;45329;-67
2021/06/25 01:04:01;;;;;;;;;0.00;0.00;;;;;17.71;49.26;101585.78;5103894;27;45449;-66
2021/06/25 01:06:28;;;;;;;;;0.00;0.00;;;;;17.70;49.26;101573.47;5101586;27;46628;-66
2021/06/25 01:08:55;;;;;;;;;0.00;0.00;;;;;17.70;49.22;101575.31;5096555;27;45270;-66
2021/06/25 01:11:20;;;;;;;;;0.00;0.00;;;;;17.69;49.05;101574.47;5122226;27;45435;-66
2021/06/25 01:13:45;;;;;;;;;0.00;0.00;;;;;17.67;49.67;101568.47;5108841;27;45468;-66
2021/06/25 01:16:11;;;;;;;;;0.00;0.00;;;;;17.66;49.49;101563.28;5121185;27;45420;-67
2021/06/25 01:18:36;;;;;;;;;0.00;0.00;;;;;17.65;49.41;101565.13;5122078;27;45295;-67
2021/06/25 01:21:02;;;;;;;;;0.00;0.00;;;;;17.64;49.68;101566.09;5103334;27;45448;-66
2021/06/25 01:23:28;;;;;;;;;0.00;0.00;;;;;17.62;49.69;101568.91;5103668;27;45321;-66
2021/06/25 01:25:55;;;;;;;;;0.00;0.00;;;;;17.60;50.16;101560.25;5121625;27;46735;-66
2021/06/25 01:28:20;;;;;;;;;0.00;0.00;;;;;17.59;50.12;101563.03;5122009;27;45433;-67
2021/06/25 01:30:47;;;;;;;;;0.00;0.00;;;;;17.56;49.89;101561.50;5103445;27;45385;-66
2021/06/25 01:33:16;;;;;;;;;0.00;0.00;;;;;17.55;49.80;101556.34;5122907;27;45206;-66
2021/06/25 01:35:42;;;;;;;;;0.00;0.00;;;;;17.54;50.18;101555.50;5125269;27;45499;-67
2021/06/25 01:38:08;;;;;;;;;0.00;0.00;;;;;17.51;50.52;101552.28;5124836;27;45352;-66
2021/06/25 01:40:38;;;;;;;;;0.00;0.00;;;;;17.50;49.99;101558.59;5125392;27;45312;-66
2021/06/25 01:43:06;;;;;;;;;0.00;0.00;;;;;17.48;50.45;101563.22;5125284;27;45233;-65
2021/06/25 01:45:34;;;;;;;;;0.00;0.00;;;;;17.46;50.42;101555.38;5125457;27;45458;-66
2021/06/25 01:48:01;;;;;;;;;0.00;0.00;;;;;17.42;50.61;101551.34;5125170;27;45266;-67
2021/06/25 01:50:29;;;;;;;;;0.00;0.00;;;;;17.42;50.96;101546.84;5106645;27;45390;-66
2021/06/25 01:52:58;;;;;;;;;0.00;0.00;;;;;17.38;50.71;101547.28;5125185;27;45196;-67
2021/06/25 01:55:25;;;;;;;;;0.00;0.00;;;;;17.37;50.71;101549.13;5124993;27;46660;-65
2021/06/25 01:57:50;;;;;;;;;0.00;0.00;;;;;17.34;50.36;101541.44;5106156;27;45400;-67
2021/06/25 02:00:16;;;;;;;;;0.00;0.00;;;;;17.34;50.70;101536.13;5124971;27;45382;-66
2021/06/25 02:02:42;;;;;;;;;0.00;0.00;;;;;17.34;50.96;101540.59;5106473;27;45468;-66
2021/06/25 02:05:10;;;;;;;;;0.00;0.00;;;;;17.34;50.99;101530.84;5116492;27;46397;-66
2021/06/25 02:07:36;;;;;;;;;0.00;0.00;;;;;17.31;51.12;101528.44;5103881;27;45217;-66
2021/06/25 02:10:04;;;;;;;;;0.75;0.75;;;;;17.31;51.21;101523.13;5104532;27;45218;-67
2021/06/25 02:12:29;;;;;;;;;0.00;0.00;;;;;17.32;50.95;101523.97;5119165;27;45399;-66
2021/06/25 02:14:54;;;;;;;;;0.00;0.00;;;;;17.32;50.80;101526.63;5124694;27;45314;-66
2021/06/25 02:17:20;;;;;;;;;0.00;0.00;;;;;17.30;51.08;101520.63;5124316;27;45329;-65
2021/06/25 02:19:46;;;;;;;;;0.00;0.00;;;;;17.30;51.77;101525.94;5106194;27;45445;-66
2021/06/25 02:22:12;;;;;;;;;0.00;0.00;;;;;17.27;51.90;101518.25;5124177;27;45665;-66
2021/06/25 02:24:38;;;;;;;;;0.00;0.00;;;;;17.26;51.25;101516.59;5105836;27;47338;-66
2021/06/25 02:27:05;;;;;;;;;0.00;0.00;;;;;17.25;51.54;101512.25;5124284;27;45240;-66
2021/06/25 02:29:30;;;;;;;;;0.00;0.00;;;;;17.23;51.99;101515.03;5106031;27;45237;-66
2021/06/25 02:31:56;;;;;;;;;0.00;0.00;;;;;17.21;52.24;101511.69;5106015;27;45717;-66
2021/06/25 02:34:21;;;;;;;;;0.00;0.00;;;;;17.18;52.01;101504.88;5124616;27;46474;-67
2021/06/25 02:36:47;;;;;;;;;0.00;0.00;;;;;17.21;51.73;101511.69;5105580;27;45529;-67
2021/06/25 02:39:13;;;;;;;;;0.00;0.00;;;;;17.19;52.03;101498.59;5124772;27;45347;-67
2021/06/25 02:41:39;;;;;;;;;0.00;0.00;;;;;17.18;52.43;101504.03;5124678;27;45390;-66
2021/06/25 02:44:05;;;;;;;;;0.00;0.00;;;;;17.18;51.93;101501.38;5105688;27;47299;-66
2021/06/25 02:46:31;;;;;;;;;0.00;0.00;;;;;17.18;52.07;101498.72;5123256;27;45347;-66
2021/06/25 02:48:56;;;;;;;;;0.00;0.00;;;;;17.17;52.28;101505.00;5124666;27;45312;-66
2021/06/25 02:51:22;;;;;;;;;0.00;0.00;;;;;17.19;52.58;101500.38;5124024;27;45652;-66
2021/06/25 02:53:47;;;;;;;;;0.00;0.00;;;;;17.17;52.25;101497.03;5105377;27;47107;-66
2021/06/25 02:56:12;;;;;;;;;0.00;0.00;;;;;17.15;52.43;101499.03;5123521;27;45296;-66
2021/06/25 02:58:38;;;;;;;;;0.00;0.00;;;;;17.14;52.92;101503.47;5105546;27;45245;-65
2021/06/25 03:01:03;;;;;;;;;0.00;0.00;;;;;17.14;52.80;101492.84;5124127;27;45228;-66
2021/06/25 03:03:29;;;;;;;;;0.00;0.00;;;;;17.12;52.72;101502.78;5123856;27;45368;-65
2021/06/25 03:05:54;;;;;;;;;0.00;0.00;;;;;17.11;52.26;101497.63;5109196;27;45273;-66
2021/06/25 03:08:20;;;;;;;;;0.00;0.00;;;;;17.10;52.78;101502.09;5103375;27;45448;-66
2021/06/25 03:10:48;;;;;;;;;0.00;0.00;;;;;17.11;52.42;101508.25;5103486;27;45233;-66
2021/06/25 03:13:14;;;;;;;;;0.00;0.00;;;;;17.09;52.16;101491.63;5102782;27;46452;-65
2021/06/25 03:15:39;;;;;;;;;0.00;0.00;;;;;17.08;52.74;101489.94;5084693;27;45455;-67
2021/06/25 03:18:05;;;;;;;;;0.00;0.00;;;;;17.06;52.43;101495.38;5093446;27;45480;-65
2021/06/25 03:20:30;;;;;;;;;0.00;0.00;;;;;17.05;52.82;101490.25;5091648;27;45433;-65
2021/06/25 03:22:55;;;;;;;;;0.00;0.00;;;;;17.04;53.03;101488.56;5123437;27;45573;-66
2021/06/25 03:25:21;;;;;;;;;0.00;0.00;;;;;17.04;52.31;101492.06;5123838;27;45319;-67
2021/06/25 03:27:46;;;;;;;;;0.00;0.00;;;;;17.00;52.71;101488.84;5123683;27;45434;-67
2021/06/25 03:30:14;;;;;;;;;0.00;0.00;;;;;17.00;53.00;101493.31;5123948;27;45412;-65
2021/06/25 03:32:39;;;;;;;;;0.00;0.00;;;;;16.99;53.05;101488.97;5104997;27;47527;-66
2021/06/25 03:35:11;;;;;;;;;0.00;0.00;;;;;16.97;53.20;101483.81;5123427;27;45430;-66
2021/06/25 03:37:37;;;;;;;;;0.00;0.00;;;;;16.94;53.47;101477.97;5123312;27;45257;-66
2021/06/25 03:40:13;;;;;;;;;0.00;0.00;;;;;16.98;53.06;101495.28;5123681;27;45459;-67
2021/06/25 03:42:40;;;;;;;;;0.00;0.00;;;;;16.98;53.45;101495.28;5104651;27;47377;-66
2021/06/25 03:45:07;;;;;;;;;0.00;0.00;;;;;16.99;53.66;101497.78;5104952;27;45687;-66
2021/06/25 03:47:33;;;;;;;;;0.00;0.00;;;;;17.01;53.11;101498.47;5123525;27;45330;-66
2021/06/25 03:49:58;;;;;;;;;0.00;0.00;;;;;17.07;53.13;101502.38;5104684;27;45337;-65
2021/06/25 03:52:24;;;;;;;;;0.00;0.00;;;;;17.09;53.26;101505.72;5122672;27;46714;-65
2021/06/25 03:54:50;;;;;;;;;0.00;0.00;;;;;17.12;53.84;101493.97;5104259;27;45369;-65
2021/06/25 03:57:15;;;;;;;;;0.00;0.00;;;;;17.17;53.51;101491.72;5122535;27;45267;-66
2021/06/25 03:59:41;;;;;;;;;0.00;0.00;;;;;17.19;53.42;101487.09;5104385;27;45467;-67
2021/06/25 04:02:10;;;;;;;;;0.00;0.00;;;;;17.21;53.29;101487.81;5122773;27;46086;-66
2021/06/25 04:04:40;;;;;;;;;0.00;0.00;;;;;17.22;53.55;101477.06;5118364;27;45373;-65
2021/06/25 04:07:06;;;;;;;;;0.00;0.00;;;;;17.29;53.17;101481.78;5083617;27;45362;-66
2021/06/25 04:09:33;;;;;;;;;0.00;0.00;;;;;17.31;53.73;101485.97;5083784;27;45635;-66
2021/06/25 04:11:58;;;;;;;;;0.00;0.00;;;;;17.30;53.43;101484.31;5083149;27;48349;-65
2021/06/25 04:14:24;;;;;;;;;0.00;0.00;;;;;17.31;53.86;101475.34;5101894;27;45281;-66
2021/06/25 04:16:50;;;;;;;;;0.00;0.00;;;;;17.31;53.58;101483.31;5102274;27;45317;-66
2021/06/25 04:19:15;;;;;;;;;0.00;0.00;;;;;17.30;54.00;101472.81;5120940;27;45232;-66
2021/06/25 04:21:40;;;;;;;;;0.00;0.00;;;;;17.32;54.02;101481.47;5122419;27;45336;-66
2021/06/25 04:24:06;;;;;;;;;0.00;0.00;;;;;17.36;53.71;101486.34;5122707;27;45462;-66
2021/06/25 04:26:32;;;;;;;;;0.00;0.00;;;;;17.38;54.01;101481.72;5123305;27;45741;-66
2021/06/25 04:28:57;;;;;;;;;0.00;0.00;;;;;17.39;53.94;101477.28;5122576;27;45402;-66
2021/06/25 04:31:23;;;;;;;;;0.00;0.00;;;;;17.42;54.31;101488.44;5122634;27;46122;-65
2021/06/25 04:33:49;;;;;;;;;0.00;0.00;;;;;17.42;54.38;101483.13;5103722;27;45439;-66
2021/06/25 04:36:14;;;;;;;;;10.75;10.75;;;;;17.47;54.17;101489.81;5122630;27;45233;-66
2021/06/25 04:38:39;;;;;;;;;0.00;0.00;;;;;17.48;54.17;101484.38;5122620;27;45617;-66
2021/06/25 04:41:06;;;;;;;;;0.00;0.00;;;;;17.50;54.59;101482.41;5122619;27;46433;-66
2021/06/25 04:43:32;;;;;;;;;0.00;0.00;;;;;17.51;54.23;101486.72;5122215;27;45236;-66
2021/06/25 04:45:59;;;;;;;;;0.00;0.00;;;;;17.53;54.19;101483.94;5122755;27;45304;-66
2021/06/25 04:48:26;;;;;;;;;7.00;7.00;;;;;17.53;54.42;101484.75;5122352;27;45541;-66
2021/06/25 04:50:51;;;;;;;;;0.00;0.00;;;;;17.55;54.48;101495.25;5103623;27;47894;-66
2021/06/25 04:53:17;;;;;;;;;0.00;0.00;;;;;17.57;54.28;101486.13;5122185;27;45383;-66
2021/06/25 04:55:42;;;;;;;;;0.00;0.00;;;;;17.57;54.31;101482.66;5122541;27;45301;-66
2021/06/25 04:58:10;;;;;;;;;0.00;0.00;;;;;17.56;54.49;101484.47;5122028;27;45582;-66
2021/06/25 05:00:37;;;;;;;;;0.00;0.00;;;;;17.56;54.29;101484.47;5122204;27;45340;-66
2021/06/25 05:03:05;;;;;;;;;0.00;0.00;;;;;17.58;53.98;101481.66;5121741;27;45237;-66
2021/06/25 05:05:31;;;;;;;;;0.00;0.00;;;;;17.60;54.10;101479.69;5109365;27;45171;-66
2021/06/25 05:07:56;;;;;;;;;0.00;0.00;;;;;17.61;54.05;101492.00;5082683;27;45405;-67
2021/06/25 05:10:22;;;;;;;;;0.00;0.00;;;;;17.62;54.04;101483.91;5117344;27;45488;-66
2021/06/25 05:12:47;;;;;;;;;0.00;0.00;;;;;17.65;53.85;101489.91;5119235;27;45393;-67
2021/06/25 05:15:13;;;;;;;;;0.00;0.00;;;;;17.62;54.19;101483.91;5117676;27;45772;-67
2021/06/25 05:17:38;;;;;;;;;0.00;0.00;;;;;17.65;53.95;101485.41;5125006;27;45388;-67
2021/06/25 05:20:05;;;;;;;;;0.00;0.00;;;;;17.68;53.77;101492.25;5125053;27;45567;-68
2021/06/25 05:22:30;;;;;;;;;0.00;0.00;;;;;17.67;54.18;101483.44;5125021;27;45522;-67
2021/06/25 05:24:56;;;;;;;;;0.00;0.00;;;;;17.73;53.85;101490.84;5125605;27;45293;-68
2021/06/25 05:27:22;;;;;;;;;0.00;0.00;;;;;17.74;53.80;101487.19;5125427;27;45404;-67
2021/06/25 05:29:47;;;;;;;;;0.00;0.00;;;;;17.77;53.82;101488.69;5125402;27;45211;-67
2021/06/25 05:32:13;;;;;;;;;3.00;3.00;;;;;17.79;53.30;101489.38;5124785;27;45381;-67
2021/06/25 05:34:38;;;;;;;;;0.00;0.00;;;;;17.82;53.61;101495.28;5125294;27;45210;-67
2021/06/25 05:37:04;;;;;;;;;0.00;0.00;;;;;17.85;53.61;101494.16;5124710;27;45497;-67
2021/06/25 05:39:29;;;;;;;;;0.00;0.00;;;;;17.87;53.28;101497.50;5106395;27;47901;-66
2021/06/25 05:41:55;;;;;;;;;0.00;0.00;;;;;17.90;53.24;101493.69;5124813;27;45492;-67
2021/06/25 05:44:20;;;;;;;;;0.00;0.00;;;;;17.89;53.15;101490.22;5125064;27;45209;-67
2021/06/25 05:46:45;;;;;;;;;0.00;0.00;;;;;17.90;53.16;101486.56;5125116;27;45149;-66
2021/06/25 05:49:11;;;;;;;;;2.50;2.50;;;;;17.90;52.96;101489.22;5125062;27;46697;-66
2021/06/25 05:51:36;;;;;;;;;0.00;0.00;;;;;17.90;53.52;101496.34;5124154;27;45375;-66
2021/06/25 05:54:01;;;;;;;;;0.00;0.00;;;;;17.90;53.40;101499.84;5124566;27;45655;-66
2021/06/25 05:56:27;;;;;;;;;0.75;0.75;;;;;17.91;52.99;101490.91;5124680;27;45465;-66
2021/06/25 05:58:52;;;;;;;;;0.00;0.00;;;;;17.87;52.97;101492.19;5105469;27;48274;-66
2021/06/25 06:01:17;;;;;;;;;1.00;1.00;;;;;17.88;53.01;101488.53;5123773;27;45301;-66
2021/06/25 06:03:45;;;;;;;;;0.00;0.00;;;;;17.88;52.93;101495.66;5123398;27;45390;-66
2021/06/25 06:06:10;;;;;;;;;0.00;0.00;;;;;17.87;53.06;101494.00;5104847;27;45356;-66
2021/06/25 06:08:37;;;;;;;;;1.00;0.00;;;;;17.90;52.65;101504.34;5114878;27;46019;-65
2021/06/25 06:11:02;;;;;;;;;0.00;0.00;;;;;17.91;52.92;101506.84;5123793;27;45324;-67
2021/06/25 06:13:28;;;;;;;;;0.00;0.00;;;;;17.90;52.81;101499.03;5112635;27;45407;-66
2021/06/25 06:15:55;;;;;;;;;3.00;3.00;;;;;17.95;52.20;101502.91;5105684;27;45224;-65
2021/06/25 06:18:27;;;;;;;;;0.00;0.00;;;;;17.97;52.21;101500.94;5123827;27;46086;-66
2021/06/25 06:20:53;;;;;;;;;0.00;0.00;;;;;18.01;52.00;101499.66;5122078;27;45237;-66
2021/06/25 06:31:32;;;;;;;;;1.00;1.00;;;;;18.14;51.83;101483.34;5123940;27;45360;-67
2021/06/25 06:33:59;;;;;;;;;0.00;0.00;;;;;18.18;51.45;101490.00;5124139;27;45312;-68
2021/06/25 06:36:32;;;;;;;;;0.00;0.00;;;;;18.26;51.47;101480.47;5105452;27;45267;-68
2021/06/25 06:38:59;;;;;;;;;0.00;0.00;;;;;18.33;51.21;101487.69;5124027;27;45531;-67
2021/06/25 06:41:28;;;;;;;;;0.50;0.50;;;;;18.38;50.77;101485.41;5123758;27;45276;-66
2021/06/25 06:43:54;;;;;;;;;0.00;0.00;;;;;18.45;50.63;101483.81;5123602;27;45297;-66
2021/06/25 06:46:20;;;;;;;;;0.00;0.00;;;;;18.52;50.88;101478.72;5105041;27;45420;-68
2021/06/25 06:48:47;;;;;;;;;0.00;0.00;;;;;18.64;50.07;101485.47;5123002;27;45271;-68
2021/06/25 06:51:14;;;;;;;;;0.00;0.00;;;;;18.79;50.03;101474.28;5122879;27;45233;-67
2021/06/25 06:53:45;;;;;;;;;0.00;0.00;;;;;19.01;49.93;101480.94;5123513;27;45356;-66
2021/06/25 06:56:12;;;;;;;;;0.25;0.25;;;;;19.31;48.70;101473.44;5104752;27;45344;-66
2021/06/25 06:58:39;;;;;;;;;0.00;0.00;;;;;19.50;47.62;101473.22;5104344;27;47958;-67
2021/06/25 07:01:05;;;;;;;;;0.00;0.00;;;;;19.84;47.55;101483.03;5122702;27;45411;-66
2021/06/25 07:03:30;;;;;;;;;0.00;0.00;;;;;20.24;46.81;101476.97;5123133;27;45225;-67
2021/06/25 07:05:55;;;;;;;;;0.00;0.00;;;;;20.67;46.24;101485.72;5105510;27;45490;-67
2021/06/25 07:08:21;;;;;;;;;0.00;0.00;;;;;21.08;45.67;101485.66;5103139;27;45807;-67
2021/06/25 07:10:46;;;;;;;;;0.00;0.00;;;;;21.39;44.37;101487.59;5084110;27;45415;-67
2021/06/25 07:13:13;;;;;;;;;0.00;0.00;;;;;21.56;43.86;101479.53;5084128;27;45275;-66
2021/06/25 07:15:38;;;;;;;;;0.00;0.00;;;;;21.71;43.21;101481.31;5118383;27;45284;-66
2021/06/25 07:18:04;;;;;;;;;0.00;0.00;;;;;21.84;43.13;101482.59;5123115;27;45412;-67
2021/06/25 07:20:29;;;;;;;;;0.00;0.00;;;;;21.86;42.09;101477.91;5090748;27;45888;-67
2021/06/25 07:22:55;;;;;;;;;0.00;0.00;;;;;21.81;43.23;101474.91;5122580;27;45378;-67
2021/06/25 07:25:20;;;;;;;;;0.00;0.00;;;;;21.89;42.38;101482.88;5123395;27;45415;-67
2021/06/25 07:27:46;;;;;;;;;0.00;0.00;;;;;21.95;42.45;101471.50;5104418;27;46256;-67
2021/06/25 07:30:13;;;;;;;;;0.00;0.00;;;;;22.21;41.74;101473.00;5122829;27;45341;-67
2021/06/25 07:32:38;;;;;;;;;0.25;0.25;;;;;22.73;41.76;101466.91;5122584;27;45408;-68
2021/06/25 07:35:05;;;;;;;;;0.00;0.00;;;;;23.02;39.87;101466.16;5122994;27;45224;-66
2021/06/25 07:37:30;;;;;;;;;0.00;0.00;;;;;23.08;40.33;101456.56;5121894;27;46479;-67
2021/06/25 07:39:56;;;;;;;;;0.00;0.00;;;;;23.14;39.79;101461.19;5122958;27;45456;-67
2021/06/25 07:42:22;;;;;;;;;0.00;0.00;;;;;23.19;40.24;101469.50;5122805;27;45308;-67
2021/06/25 07:44:49;;;;;;;;;0.00;0.00;;;;;23.25;39.37;101462.56;5104502;27;45527;-66
2021/06/25 07:47:14;;;;;;;;;1.00;0.00;;;;;23.28;39.42;101460.38;5122586;27;45363;-66
2021/06/25 07:49:39;;;;;;;;;0.00;0.00;;;;;23.36;38.95;101461.28;5122483;27;45362;-68
2021/06/25 07:52:05;;;;;;;;;0.00;0.00;;;;;23.50;39.26;101455.06;5122771;27;45254;-66
2021/06/25 07:54:30;;;;;;;;;0.00;0.00;;;;;23.55;38.82;101455.34;5122573;27;45324;-68
2021/06/25 07:56:56;;;;;;;;;0.00;0.00;;;;;23.48;38.65;101457.09;5122129;27;45335;-66
2021/06/25 07:59:21;;;;;;;;;0.00;0.00;;;;;23.43;39.37;101448.78;5122215;27;45317;-67
2021/06/25 08:01:46;;;;;;;;;7.00;7.00;;;;;23.51;38.70;101437.97;5103994;27;45310;-67
2021/06/25 08:04:11;;;;;;;;;0.00;0.00;;;;;23.99;38.46;101449.03;5121276;27;45443;-66
2021/06/25 08:06:37;;;;;;;;;0.00;0.00;;;;;24.81;38.26;101453.09;5110005;27;45307;-68
2021/06/25 08:09:04;;;;;;;;;0.00;0.00;;;;;25.73;36.33;101438.50;5122081;27;46537;-67
2021/06/25 08:11:31;;;;;;;;;0.00;0.00;;;;;26.53;35.44;101441.31;5122849;27;45426;-68
2021/06/25 08:13:56;;;;;;;;;0.00;0.00;;;;;27.17;33.83;101430.88;5108756;27;45426;-67
2021/06/25 08:16:22;;;;;;;;;1.00;0.00;;;;;27.51;32.91;101423.50;5122148;27;45964;-68
2021/06/25 08:18:47;;;;;;;;;0.00;0.00;;;;;27.55;33.14;101424.75;5122195;27;45385;-68
2021/06/25 08:21:12;;;;;;;;;0.00;0.00;;;;;27.69;32.77;101428.19;5121913;27;45312;-68
2021/06/25 08:23:38;;;;;;;;;0.00;0.00;;;;;27.78;32.15;101441.22;5122371;27;45524;-67
2021/06/25 08:26:03;;;;;;;;;0.00;0.00;;;;;27.81;31.27;101439.94;5103038;27;47204;-68
2021/06/25 08:28:28;;;;;;;;;0.00;0.00;;;;;27.97;31.40;101434.09;5102955;27;45730;-67
2021/06/25 08:30:54;;;;;;;;;0.00;0.00;;;;;27.87;31.03;101427.50;5122506;27;45730;-67
2021/06/25 08:33:19;;;;;;;;;0.00;0.00;;;;;27.75;31.77;101430.03;5122441;27;45380;-67
2021/06/25 08:35:44;;;;;;;;;0.00;0.00;;;;;27.64;31.14;101419.91;5121774;27;45507;-67
2021/06/25 08:38:10;;;;;;;;;0.00;0.00;;;;;27.66;31.92;101421.34;5121705;27;45317;-67
2021/06/25 08:40:36;;;;;;;;;3.00;0.00;;;;;27.91;30.96;101421.44;5122188;27;45274;-67
2021/06/25 08:43:01;;;;;;;;;0.00;0.00;;;;;27.95;31.45;101413.75;5122147;27;45431;-68
2021/06/25 08:45:28;;;;;;;;;0.00;0.00;;;;;27.95;30.93;101414.56;5125741;27;45306;-67
2021/06/25 08:47:54;;;;;;;;;0.00;0.00;;;;;27.98;30.76;101411.41;5125598;27;45224;-67
2021/06/25 08:50:23;;;;;;;;;0.00;0.00;;;;;28.21;30.89;101415.44;5090470;27;45311;-68
2021/06/25 08:52:53;;;;;;;;;0.00;0.00;;;;;28.30;30.87;101414.09;5125543;27;45530;-68
2021/06/25 08:55:20;;;;;;;;;0.00;0.00;;;;;28.72;29.67;101413.53;5125727;27;46158;-68
2021/06/25 08:57:46;;;;;;;;;0.00;0.00;;;;;28.75;28.83;101419.31;5125038;27;45258;-67
2021/06/25 09:00:14;;;;;;;;;0.00;0.00;;;;;28.47;28.92;101408.97;5125644;27;45403;-67
2021/06/25 09:02:39;;;;;;;;;0.00;0.00;;;;;28.03;29.96;101408.06;5107002;27;45361;-67
2021/06/25 09:05:07;;;;;;;;;0.00;0.00;;;;;27.79;30.23;101412.34;5116237;27;45438;-68
2021/06/25 09:07:44;;;;;;;;;0.00;0.00;;;;;27.81;30.59;101405.69;5120486;27;45329;-67
2021/06/25 09:10:12;;;;;;;;;0.00;0.00;;;;;28.32;30.81;101403.91;5106570;27;45351;-68
2021/06/25 09:12:38;;;;;;;;;0.00;0.00;;;;;28.76;30.27;101393.94;5120138;27;45505;-68
2021/06/25 09:15:17;;;;;;;;;0.00;0.00;;;;;29.25;29.61;101399.44;5116109;27;45801;-67
2021/06/25 09:17:58;;;;;;;;;0.00;0.00;;;;;29.93;29.25;101394.78;5124752;27;45190;-67
2021/06/25 09:20:36;;;;;;;;;0.00;0.00;;;;;30.11;28.26;101393.84;5092549;27;45260;-68
2021/06/25 09:23:30;;;;;;;;;0.00;0.00;;;;;30.17;28.43;101396.47;5124903;27;45394;-67
2021/06/25 09:25:55;;;;;;;;;0.00;0.00;;;;;29.88;28.38;101392.78;5113628;27;45878;-68
2021/06/25 09:28:35;;;;;;;;;0.00;0.00;;;;;30.12;27.57;101390.09;5105738;27;45274;-67
2021/06/25 09:31:00;;;;;;;;;0.00;0.00;;;;;30.59;28.32;101385.56;5124854;27;45265;-66
2021/06/25 09:33:26;;;;;;;;;0.00;0.00;;;;;31.33;27.58;101384.94;5125020;27;45220;-67
2021/06/25 09:35:54;;;;;;;;;0.00;0.00;;;;;32.39;26.33;101392.47;5123907;27;46727;-66
2021/06/25 09:38:30;;;;;;;;;1.00;1.00;;;;;33.62;25.51;101379.63;5105852;27;45940;-67
2021/06/25 09:40:56;;;;;;;;;0.00;0.00;;;;;35.12;24.52;101383.09;5105523;27;45480;-69
2021/06/25 09:43:29;;;;;;;;;0.00;0.00;;;;;36.43;23.99;101382.66;5105638;27;45326;-68
2021/06/25 09:45:54;;;;;;;;;0.00;0.00;;;;;37.28;22.36;101381.81;5124551;27;46568;-67
2021/06/25 09:48:20;;;;;;;;;0.00;0.00;;;;;37.40;21.62;101384.19;5124018;27;45507;-64
2021/06/25 09:50:46;;;;;;;;;1.00;1.00;;;;;37.42;20.60;101378.41;5124259;27;46523;-67
2021/06/25 09:53:11;;;;;;;;;0.00;0.00;;;;;36.87;21.07;101376.50;5124601;27;45548;-66
2021/06/25 09:55:55;;;;;;;;;0.00;0.00;;;;;35.91;20.93;101379.13;5123734;27;46708;-68
2021/06/25 10:01:21;;;;;;;;;0.00;0.00;;;;;33.95;22.84;101373.09;5123926;27;45268;-68
2021/06/25 10:03:48;;;;;;;;;0.00;0.00;;;;;33.47;23.50;101375.66;5123912;27;45204;-66
2021/06/25 10:06:16;;;;;;;;;0.00;0.00;;;;;33.27;23.47;101375.44;5105340;27;45682;-65
2021/06/25 10:08:44;;;;;;;;;0.00;0.00;;;;;33.10;24.67;101370.91;5095299;27;45703;-65
2021/06/25 10:11:10;;;;;;;;;0.00;0.00;;;;;34.27;23.95;101377.72;5123306;27;45209;-65
2021/06/25 10:13:39;;;;;;;;;0.00;0.00;;;;;35.36;22.77;101377.16;5101468;27;45399;-66
2021/06/25 10:16:06;;;;;;;;;0.00;0.00;;;;;35.34;22.33;101366.53;5121333;27;46418;-67
2021/06/25 10:18:40;;;;;;;;;1.50;1.50;;;;;35.93;22.41;101367.94;5104910;27;45416;-65
2021/06/25 10:21:08;;;;;;;;;0.00;0.00;;;;;36.14;21.27;101372.31;5102547;27;45316;-66
2021/06/25 10:23:35;;;;;;;;;0.00;0.00;;;;;35.43;21.84;101375.00;5098539;27;45242;-65
2021/06/25 10:26:06;;;;;;;;;0.00;0.00;;;;;34.81;22.46;101369.31;5123417;27;46176;-66
2021/06/25 10:28:32;;;;;;;;;0.00;0.00;;;;;34.23;22.93;101369.25;5123040;27;45334;-66
2021/06/25 10:30:58;;;;;;;;;0.00;0.00;;;;;33.79;23.38;101358.53;5123376;27;45307;-66
2021/06/25 10:33:24;;;;;;;;;0.00;0.00;;;;;33.25;23.47;101364.00;5124058;27;45591;-67
2021/06/25 10:35:49;;;;;;;;;0.00;0.00;;;;;32.62;23.70;101363.50;5122891;27;45586;-66
2021/06/25 10:38:18;;;;;;;;;0.00;0.00;;;;;31.98;24.40;101353.00;5123469;27;45282;-66
2021/06/25 10:40:59;;;;;;;;;1.50;1.50;;;;;31.35;25.54;101358.38;5124145;27;45330;-66
2021/06/25 10:43:50;;;;;;;;;0.00;0.00;;;;;30.93;26.17;101355.94;5123723;27;45419;-66
2021/06/25 10:46:34;;;;;;;;;0.00;0.00;;;;;30.72;26.67;101349.22;5104434;27;47319;-66
2021/06/25 10:49:07;;;;;;;;;0.00;0.00;;;;;30.45;27.46;101348.91;5123402;27;45331;-64
2021/06/25 10:51:35;;;;;;;;;0.00;0.00;;;;;30.22;27.55;101353.25;5123158;27;45420;-66
2021/06/25 10:54:23;;;;;;;;;0.00;0.00;;;;;29.97;28.35;101348.03;5123457;27;45441;-65
2021/06/25 10:56:48;;;;;;;;;0.00;0.00;;;;;29.56;28.74;101343.44;5122266;27;46438;-67
2021/06/25 10:59:27;;;;;;;;;0.00;0.00;;;;;29.18;29.24;101344.59;5122659;27;45255;-66
2021/06/25 11:01:56;;;;;;;;;0.00;0.00;;;;;28.89;29.80;101348.88;5123483;27;45319;-66
2021/06/25 11:04:38;;;;;;;;;0.00;0.00;;;;;28.77;30.22;101346.94;5120932;27;45415;-66
2021/06/25 11:07:56;;;;;;;;;0.25;0.25;;;;;28.54;30.72;101342.19;5082838;27;47970;-67
2021/06/25 11:10:23;;;;;;;;;0.00;0.00;;;;;28.39;30.92;101347.94;5096318;27;45318;-70
2021/06/25 11:12:50;;;;;;;;;0.00;0.00;;;;;28.27;31.18;101344.28;5101113;27;45316;-68
2021/06/25 11:15:16;;;;;;;;;0.00;0.00;;;;;28.27;30.96;101348.88;5114490;27;45429;-66
2021/06/25 11:17:55;;;;;;;;;0.00;0.00;;;;;28.28;31.15;101351.38;5122843;27;45549;-69
2021/06/25 11:20:38;;;;;;;;;0.00;0.00;;;;;28.20;31.51;101355.16;5122351;27;45262;-68
2021/06/25 11:23:11;;;;;;;;;0.00;0.00;;;;;28.07;31.35;101347.19;5103693;27;45301;-67
2021/06/25 11:25:55;;;;;;;;;0.00;0.00;;;;;28.02;31.81;101345.13;5123328;27;45297;-69
2021/06/25 11:28:23;;;;;;;;;0.00;0.00;;;;;27.91;31.55;101339.63;5122772;27;45525;-67
2021/06/25 11:30:59;;;;;;;;;0.00;0.00;;;;;27.96;32.55;101346.00;5122850;27;45274;-68
2021/06/25 11:33:27;;;;;;;;;0.00;0.00;;;;;28.16;32.96;101345.84;5122923;27;45399;-68
2021/06/25 11:35:53;;;;;;;;;0.00;0.00;;;;;28.32;32.58;101347.16;5122179;27;45425;-70